Orlando, Florida
Current Conditions -  °F | °C
As of 7:53 AM on Saturday 01 Nov 2014 (Local Time) from KORL Reporting Station
Clear Clear  
Wind Chill: 57°   Ceiling: Unl
Heat Index: 57°   Visibility: 10mi
Dew Point: 46°   Wind: 10mph
Humidity: 67%   Direction: 310°NW
Pressure: 29.96"   Gusts: NA
Location:  28.54°N, 81.38°W
Report Text: KORL 011153Z 31009KT 10SM CLR 14/08 A2996 RMK AO2 PK WND 32026/1105 SLP151 T01390078 10172 20139 52029
Loading
Personal Weather Stations






























Interactive Weather Map
Tropical Storm Tracking
New forecast layout! Learn more

10-Day Weather Forecast

Advertisements
Track Severe Weather on mobile